sensor_id;sensor_type;location;lat;lon;timestamp;P1;durP1;ratioP1;P2;durP2;ratioP2
38629;SDS011;24384;51.988;4.644;2024-01-15T00:01:06;12.07;;;2.10;;
38629;SDS011;24384;51.988;4.644;2024-01-15T00:03:31;9.38;;;1.60;;
38629;SDS011;24384;51.988;4.644;2024-01-15T00:05:57;17.27;;;2.72;;
38629;SDS011;24384;51.988;4.644;2024-01-15T00:08:22;16.65;;;2.15;;
38629;SDS011;24384;51.988;4.644;2024-01-15T00:10:47;11.40;;;2.22;;
38629;SDS011;24384;51.988;4.644;2024-01-15T00:13:14;10.07;;;2.42;;
38629;SDS011;24384;51.988;4.644;2024-01-15T00:15:39;22.45;;;2.88;;
38629;SDS011;24384;51.988;4.644;2024-01-15T00:18:05;15.45;;;2.33;;
38629;SDS011;24384;51.988;4.644;2024-01-15T00:20:30;15.80;;;2.65;;
38629;SDS011;24384;51.988;4.644;2024-01-15T00:22:56;15.40;;;2.47;;
38629;SDS011;24384;51.988;4.644;2024-01-15T00:25:21;13.80;;;2.97;;
38629;SDS011;24384;51.988;4.644;2024-01-15T00:27:48;18.08;;;2.45;;
38629;SDS011;24384;51.988;4.644;2024-01-15T00:30:13;15.20;;;1.85;;
38629;SDS011;24384;51.988;4.644;2024-01-15T00:32:39;18.60;;;2.35;;
38629;SDS011;24384;51.988;4.644;2024-01-15T00:35:04;17.58;;;2.28;;
38629;SDS011;24384;51.988;4.644;2024-01-15T00:37:30;19.02;;;1.77;;
38629;SDS011;24384;51.988;4.644;2024-01-15T00:39:55;9.10;;;1.77;;
38629;SDS011;24384;51.988;4.644;2024-01-15T00:42:20;21.05;;;2.05;;
38629;SDS011;24384;51.988;4.644;2024-01-15T00:44:46;14.43;;;2.53;;
38629;SDS011;24384;51.988;4.644;2024-01-15T00:47:11;13.35;;;1.67;;
38629;SDS011;24384;51.988;4.644;2024-01-15T00:49:36;15.85;;;1.80;;
38629;SDS011;24384;51.988;4.644;2024-01-15T00:52:02;22.25;;;3.58;;
38629;SDS011;24384;51.988;4.644;2024-01-15T00:54:27;14.70;;;2.90;;
38629;SDS011;24384;51.988;4.644;2024-01-15T00:56:55;12.05;;;1.90;;
38629;SDS011;24384;51.988;4.644;2024-01-15T00:59:20;21.13;;;2.08;;
38629;SDS011;24384;51.988;4.644;2024-01-15T01:01:46;12.13;;;4.70;;
38629;SDS011;24384;51.988;4.644;2024-01-15T01:04:11;13.20;;;3.28;;
38629;SDS011;24384;51.988;4.644;2024-01-15T01:06:37;11.25;;;2.78;;
38629;SDS011;24384;51.988;4.644;2024-01-15T01:09:02;14.13;;;2.15;;
38629;SDS011;24384;51.988;4.644;2024-01-15T01:11:28;14.52;;;1.67;;
38629;SDS011;24384;51.988;4.644;2024-01-15T01:13:53;17.75;;;1.40;;
38629;SDS011;24384;51.988;4.644;2024-01-15T01:16:19;10.63;;;2.00;;
38629;SDS011;24384;51.988;4.644;2024-01-15T01:18:44;6.32;;;1.40;;
38629;SDS011;24384;51.988;4.644;2024-01-15T01:21:10;11.15;;;1.80;;
38629;SDS011;24384;51.988;4.644;2024-01-15T01:23:35;14.88;;;1.52;;
38629;SDS011;24384;51.988;4.644;2024-01-15T01:26:00;7.60;;;1.73;;
38629;SDS011;24384;51.988;4.644;2024-01-15T01:28:25;12.60;;;2.42;;
38629;SDS011;24384;51.988;4.644;2024-01-15T01:30:51;8.63;;;1.58;;
38629;SDS011;24384;51.988;4.644;2024-01-15T01:33:16;6.25;;;1.45;;
38629;SDS011;24384;51.988;4.644;2024-01-15T01:35:41;11.88;;;2.88;;
38629;SDS011;24384;51.988;4.644;2024-01-15T01:38:07;9.48;;;2.17;;
38629;SDS011;24384;51.988;4.644;2024-01-15T01:40:32;8.13;;;1.60;;
38629;SDS011;24384;51.988;4.644;2024-01-15T01:42:57;13.93;;;1.48;;
38629;SDS011;24384;51.988;4.644;2024-01-15T01:45:25;8.30;;;1.85;;
38629;SDS011;24384;51.988;4.644;2024-01-15T01:47:50;12.55;;;2.08;;
38629;SDS011;24384;51.988;4.644;2024-01-15T01:50:15;14.10;;;2.00;;
38629;SDS011;24384;51.988;4.644;2024-01-15T01:52:41;12.13;;;1.42;;
38629;SDS011;24384;51.988;4.644;2024-01-15T01:55:09;16.80;;;1.90;;
38629;SDS011;24384;51.988;4.644;2024-01-15T01:57:37;8.70;;;1.90;;
38629;SDS011;24384;51.988;4.644;2024-01-15T02:00:03;7.63;;;1.35;;
38629;SDS011;24384;51.988;4.644;2024-01-15T02:02:31;8.20;;;1.42;;
38629;SDS011;24384;51.988;4.644;2024-01-15T02:04:57;19.42;;;1.52;;
38629;SDS011;24384;51.988;4.644;2024-01-15T02:07:22;8.25;;;2.33;;
38629;SDS011;24384;51.988;4.644;2024-01-15T02:09:48;4.90;;;1.35;;
38629;SDS011;24384;51.988;4.644;2024-01-15T02:12:15;7.00;;;1.95;;
38629;SDS011;24384;51.988;4.644;2024-01-15T02:14:40;7.70;;;0.80;;
38629;SDS011;24384;51.988;4.644;2024-01-15T02:17:06;14.65;;;2.17;;
38629;SDS011;24384;51.988;4.644;2024-01-15T02:19:31;11.95;;;1.35;;
38629;SDS011;24384;51.988;4.644;2024-01-15T02:21:56;17.33;;;2.30;;
38629;SDS011;24384;51.988;4.644;2024-01-15T02:24:22;10.40;;;1.92;;
38629;SDS011;24384;51.988;4.644;2024-01-15T02:26:47;11.98;;;1.77;;
38629;SDS011;24384;51.988;4.644;2024-01-15T02:29:13;7.95;;;1.13;;
38629;SDS011;24384;51.988;4.644;2024-01-15T02:31:39;5.75;;;2.17;;
38629;SDS011;24384;51.988;4.644;2024-01-15T02:34:05;10.95;;;1.05;;
38629;SDS011;24384;51.988;4.644;2024-01-15T02:36:30;4.07;;;1.13;;
38629;SDS011;24384;51.988;4.644;2024-01-15T02:38:57;4.60;;;1.70;;
38629;SDS011;24384;51.988;4.644;2024-01-15T02:41:22;5.78;;;0.95;;
38629;SDS011;24384;51.988;4.644;2024-01-15T02:43:47;7.07;;;1.50;;
38629;SDS011;24384;51.988;4.644;2024-01-15T02:46:13;8.13;;;0.95;;
38629;SDS011;24384;51.988;4.644;2024-01-15T02:48:38;6.10;;;0.75;;
38629;SDS011;24384;51.988;4.644;2024-01-15T02:51:03;5.40;;;1.23;;
38629;SDS011;24384;51.988;4.644;2024-01-15T02:53:29;3.30;;;1.02;;
38629;SDS011;24384;51.988;4.644;2024-01-15T02:55:54;13.63;;;2.25;;
38629;SDS011;24384;51.988;4.644;2024-01-15T02:58:19;3.42;;;0.95;;
38629;SDS011;24384;51.988;4.644;2024-01-15T03:00:45;5.47;;;0.90;;
38629;SDS011;24384;51.988;4.644;2024-01-15T03:03:12;2.85;;;0.93;;
38629;SDS011;24384;51.988;4.644;2024-01-15T03:05:38;4.00;;;1.00;;
38629;SDS011;24384;51.988;4.644;2024-01-15T03:08:03;4.75;;;0.85;;
38629;SDS011;24384;51.988;4.644;2024-01-15T03:10:29;4.60;;;0.80;;
38629;SDS011;24384;51.988;4.644;2024-01-15T03:12:54;1.98;;;0.90;;
38629;SDS011;24384;51.988;4.644;2024-01-15T03:15:19;7.88;;;1.42;;
38629;SDS011;24384;51.988;4.644;2024-01-15T03:17:45;3.58;;;0.75;;
38629;SDS011;24384;51.988;4.644;2024-01-15T03:20:10;5.88;;;1.05;;
38629;SDS011;24384;51.988;4.644;2024-01-15T03:22:36;12.25;;;1.20;;
38629;SDS011;24384;51.988;4.644;2024-01-15T03:25:03;7.50;;;1.40;;
38629;SDS011;24384;51.988;4.644;2024-01-15T03:27:29;5.00;;;1.30;;
38629;SDS011;24384;51.988;4.644;2024-01-15T03:29:54;11.45;;;1.17;;
38629;SDS011;24384;51.988;4.644;2024-01-15T03:32:20;5.93;;;0.65;;
38629;SDS011;24384;51.988;4.644;2024-01-15T03:34:45;5.25;;;1.35;;
38629;SDS011;24384;51.988;4.644;2024-01-15T03:37:12;4.68;;;0.90;;
38629;SDS011;24384;51.988;4.644;2024-01-15T03:39:38;5.88;;;0.65;;
38629;SDS011;24384;51.988;4.644;2024-01-15T03:42:03;2.17;;;0.40;;
38629;SDS011;24384;51.988;4.644;2024-01-15T03:44:28;7.03;;;1.10;;
38629;SDS011;24384;51.988;4.644;2024-01-15T03:46:54;7.47;;;1.63;;
38629;SDS011;24384;51.988;4.644;2024-01-15T03:49:19;4.60;;;0.90;;
38629;SDS011;24384;51.988;4.644;2024-01-15T03:51:44;2.28;;;0.50;;
38629;SDS011;24384;51.988;4.644;2024-01-15T03:54:10;7.65;;;0.85;;
38629;SDS011;24384;51.988;4.644;2024-01-15T03:56:35;7.28;;;1.35;;
38629;SDS011;24384;51.988;4.644;2024-01-15T03:59:00;3.92;;;1.05;;
38629;SDS011;24384;51.988;4.644;2024-01-15T04:01:26;8.65;;;1.35;;
38629;SDS011;24384;51.988;4.644;2024-01-15T04:03:51;2.58;;;1.10;;
38629;SDS011;24384;51.988;4.644;2024-01-15T04:06:17;14.00;;;1.38;;
38629;SDS011;24384;51.988;4.644;2024-01-15T04:08:43;8.35;;;1.75;;
38629;SDS011;24384;51.988;4.644;2024-01-15T04:11:11;8.93;;;1.35;;
38629;SDS011;24384;51.988;4.644;2024-01-15T04:13:36;5.80;;;1.10;;
38629;SDS011;24384;51.988;4.644;2024-01-15T04:16:02;4.78;;;0.90;;
38629;SDS011;24384;51.988;4.644;2024-01-15T04:18:28;5.47;;;0.90;;
38629;SDS011;24384;51.988;4.644;2024-01-15T04:20:53;9.50;;;1.08;;
38629;SDS011;24384;51.988;4.644;2024-01-15T04:23:19;9.80;;;1.60;;
38629;SDS011;24384;51.988;4.644;2024-01-15T04:25:44;4.72;;;0.98;;
38629;SDS011;24384;51.988;4.644;2024-01-15T04:28:10;14.75;;;2.08;;
38629;SDS011;24384;51.988;4.644;2024-01-15T04:30:36;8.20;;;0.60;;
38629;SDS011;24384;51.988;4.644;2024-01-15T04:33:03;5.45;;;1.40;;
38629;SDS011;24384;51.988;4.644;2024-01-15T04:35:28;2.70;;;0.45;;
38629;SDS011;24384;51.988;4.644;2024-01-15T04:37:53;3.28;;;0.57;;
38629;SDS011;24384;51.988;4.644;2024-01-15T04:40:19;8.20;;;1.00;;
38629;SDS011;24384;51.988;4.644;2024-01-15T04:42:44;6.68;;;0.88;;
38629;SDS011;24384;51.988;4.644;2024-01-15T04:45:11;2.63;;;0.30;;
38629;SDS011;24384;51.988;4.644;2024-01-15T04:47:36;7.18;;;1.00;;
38629;SDS011;24384;51.988;4.644;2024-01-15T04:50:02;5.93;;;0.40;;
38629;SDS011;24384;51.988;4.644;2024-01-15T04:52:28;4.13;;;0.70;;
38629;SDS011;24384;51.988;4.644;2024-01-15T04:54:53;2.72;;;0.80;;
38629;SDS011;24384;51.988;4.644;2024-01-15T04:57:18;2.80;;;0.75;;
38629;SDS011;24384;51.988;4.644;2024-01-15T04:59:44;3.67;;;0.80;;
38629;SDS011;24384;51.988;4.644;2024-01-15T05:02:09;6.93;;;0.93;;
38629;SDS011;24384;51.988;4.644;2024-01-15T05:04:34;4.80;;;0.40;;
38629;SDS011;24384;51.988;4.644;2024-01-15T05:06:59;0.50;;;0.22;;
38629;SDS011;24384;51.988;4.644;2024-01-15T05:09:26;2.13;;;0.30;;
38629;SDS011;24384;51.988;4.644;2024-01-15T05:11:51;1.30;;;0.17;;
38629;SDS011;24384;51.988;4.644;2024-01-15T05:14:17;8.68;;;0.68;;
38629;SDS011;24384;51.988;4.644;2024-01-15T05:16:48;1.88;;;0.70;;
38629;SDS011;24384;51.988;4.644;2024-01-15T05:19:14;2.55;;;0.57;;
38629;SDS011;24384;51.988;4.644;2024-01-15T05:21:40;8.52;;;0.80;;
38629;SDS011;24384;51.988;4.644;2024-01-15T05:24:05;3.38;;;0.70;;
38629;SDS011;24384;51.988;4.644;2024-01-15T05:26:30;2.65;;;0.52;;
38629;SDS011;24384;51.988;4.644;2024-01-15T05:28:56;2.17;;;0.30;;
38629;SDS011;24384;51.988;4.644;2024-01-15T05:31:21;5.25;;;0.90;;
38629;SDS011;24384;51.988;4.644;2024-01-15T05:33:47;8.48;;;1.30;;
38629;SDS011;24384;51.988;4.644;2024-01-15T05:36:14;3.30;;;0.60;;
38629;SDS011;24384;51.988;4.644;2024-01-15T05:38:40;2.47;;;0.60;;
38629;SDS011;24384;51.988;4.644;2024-01-15T05:41:05;5.22;;;0.88;;
38629;SDS011;24384;51.988;4.644;2024-01-15T05:43:30;4.22;;;0.60;;
38629;SDS011;24384;51.988;4.644;2024-01-15T05:45:56;1.67;;;0.60;;
38629;SDS011;24384;51.988;4.644;2024-01-15T05:48:21;4.97;;;1.00;;
38629;SDS011;24384;51.988;4.644;2024-01-15T05:50:47;4.87;;;0.60;;
38629;SDS011;24384;51.988;4.644;2024-01-15T05:53:12;3.20;;;1.03;;
38629;SDS011;24384;51.988;4.644;2024-01-15T05:55:37;5.30;;;0.90;;
38629;SDS011;24384;51.988;4.644;2024-01-15T05:58:03;2.83;;;0.90;;
38629;SDS011;24384;51.988;4.644;2024-01-15T06:00:29;1.40;;;0.70;;
38629;SDS011;24384;51.988;4.644;2024-01-15T06:02:54;4.53;;;1.77;;
38629;SDS011;24384;51.988;4.644;2024-01-15T06:05:19;7.20;;;1.63;;
38629;SDS011;24384;51.988;4.644;2024-01-15T06:07:45;3.33;;;0.77;;
38629;SDS011;24384;51.988;4.644;2024-01-15T06:10:10;4.38;;;1.27;;
38629;SDS011;24384;51.988;4.644;2024-01-15T06:12:38;10.10;;;1.00;;
38629;SDS011;24384;51.988;4.644;2024-01-15T06:15:03;8.70;;;1.33;;
38629;SDS011;24384;51.988;4.644;2024-01-15T06:17:31;7.22;;;1.25;;
38629;SDS011;24384;51.988;4.644;2024-01-15T06:19:57;10.00;;;1.10;;
38629;SDS011;24384;51.988;4.644;2024-01-15T06:22:22;7.73;;;1.13;;
38629;SDS011;24384;51.988;4.644;2024-01-15T06:24:48;14.02;;;3.45;;
38629;SDS011;24384;51.988;4.644;2024-01-15T06:27:13;5.15;;;1.10;;
38629;SDS011;24384;51.988;4.644;2024-01-15T06:29:38;10.63;;;2.17;;
38629;SDS011;24384;51.988;4.644;2024-01-15T06:32:04;6.40;;;1.40;;
38629;SDS011;24384;51.988;4.644;2024-01-15T06:34:30;4.88;;;0.95;;
38629;SDS011;24384;51.988;4.644;2024-01-15T06:36:56;2.60;;;0.93;;
38629;SDS011;24384;51.988;4.644;2024-01-15T06:39:21;3.88;;;0.57;;
38629;SDS011;24384;51.988;4.644;2024-01-15T06:41:46;2.08;;;0.68;;
38629;SDS011;24384;51.988;4.644;2024-01-15T06:44:12;7.10;;;0.73;;
38629;SDS011;24384;51.988;4.644;2024-01-15T06:46:45;4.38;;;0.45;;
38629;SDS011;24384;51.988;4.644;2024-01-15T06:49:10;4.28;;;0.75;;
38629;SDS011;24384;51.988;4.644;2024-01-15T06:51:36;0.70;;;0.30;;
38629;SDS011;24384;51.988;4.644;2024-01-15T06:54:03;2.35;;;0.50;;
38629;SDS011;24384;51.988;4.644;2024-01-15T06:56:28;2.20;;;0.40;;
38629;SDS011;24384;51.988;4.644;2024-01-15T06:58:53;4.53;;;0.63;;
38629;SDS011;24384;51.988;4.644;2024-01-15T07:01:19;6.18;;;1.05;;
38629;SDS011;24384;51.988;4.644;2024-01-15T07:03:45;3.35;;;0.73;;
38629;SDS011;24384;51.988;4.644;2024-01-15T07:06:11;3.90;;;1.13;;
38629;SDS011;24384;51.988;4.644;2024-01-15T07:08:36;4.07;;;0.73;;
38629;SDS011;24384;51.988;4.644;2024-01-15T07:11:05;4.38;;;1.20;;
38629;SDS011;24384;51.988;4.644;2024-01-15T07:13:31;4.68;;;0.70;;
38629;SDS011;24384;51.988;4.644;2024-01-15T07:15:57;9.95;;;0.60;;
38629;SDS011;24384;51.988;4.644;2024-01-15T07:18:22;4.93;;;0.95;;
38629;SDS011;24384;51.988;4.644;2024-01-15T07:20:48;6.18;;;1.58;;
38629;SDS011;24384;51.988;4.644;2024-01-15T07:23:13;7.97;;;1.05;;
38629;SDS011;24384;51.988;4.644;2024-01-15T07:25:39;5.10;;;1.10;;
38629;SDS011;24384;51.988;4.644;2024-01-15T07:28:04;2.30;;;0.80;;
38629;SDS011;24384;51.988;4.644;2024-01-15T07:30:30;5.20;;;0.77;;
38629;SDS011;24384;51.988;4.644;2024-01-15T07:32:55;4.93;;;1.38;;
38629;SDS011;24384;51.988;4.644;2024-01-15T07:35:20;10.43;;;2.15;;
38629;SDS011;24384;51.988;4.644;2024-01-15T07:37:46;9.73;;;2.40;;
38629;SDS011;24384;51.988;4.644;2024-01-15T07:40:11;8.25;;;2.65;;
38629;SDS011;24384;51.988;4.644;2024-01-15T07:42:37;5.00;;;1.77;;
38629;SDS011;24384;51.988;4.644;2024-01-15T07:45:03;6.07;;;0.85;;
38629;SDS011;24384;51.988;4.644;2024-01-15T07:47:29;7.47;;;1.45;;
38629;SDS011;24384;51.988;4.644;2024-01-15T07:49:54;8.68;;;1.10;;
38629;SDS011;24384;51.988;4.644;2024-01-15T07:52:20;7.38;;;1.52;;
38629;SDS011;24384;51.988;4.644;2024-01-15T07:54:46;9.30;;;1.73;;
38629;SDS011;24384;51.988;4.644;2024-01-15T07:57:11;7.45;;;3.40;;
38629;SDS011;24384;51.988;4.644;2024-01-15T07:59:36;10.15;;;4.75;;
38629;SDS011;24384;51.988;4.644;2024-01-15T08:02:02;8.65;;;3.20;;
38629;SDS011;24384;51.988;4.644;2024-01-15T08:04:28;11.35;;;2.90;;
38629;SDS011;24384;51.988;4.644;2024-01-15T08:06:53;6.00;;;2.17;;
38629;SDS011;24384;51.988;4.644;2024-01-15T08:09:19;12.05;;;2.70;;
38629;SDS011;24384;51.988;4.644;2024-01-15T08:11:44;5.70;;;1.73;;
38629;SDS011;24384;51.988;4.644;2024-01-15T08:14:10;13.23;;;1.75;;
38629;SDS011;24384;51.988;4.644;2024-01-15T08:16:35;10.50;;;2.30;;
38629;SDS011;24384;51.988;4.644;2024-01-15T08:19:01;4.57;;;1.85;;
38629;SDS011;24384;51.988;4.644;2024-01-15T08:21:26;8.65;;;1.52;;
38629;SDS011;24384;51.988;4.644;2024-01-15T08:23:55;13.48;;;2.38;;
38629;SDS011;24384;51.988;4.644;2024-01-15T08:26:27;14.35;;;3.05;;
38629;SDS011;24384;51.988;4.644;2024-01-15T08:28:53;15.02;;;2.25;;
38629;SDS011;24384;51.988;4.644;2024-01-15T08:31:19;18.88;;;2.22;;
38629;SDS011;24384;51.988;4.644;2024-01-15T08:33:45;5.85;;;1.33;;
38629;SDS011;24384;51.988;4.644;2024-01-15T08:36:11;9.32;;;1.63;;
38629;SDS011;24384;51.988;4.644;2024-01-15T08:38:36;8.95;;;1.60;;
38629;SDS011;24384;51.988;4.644;2024-01-15T08:41:01;8.98;;;2.10;;
38629;SDS011;24384;51.988;4.644;2024-01-15T08:43:27;6.95;;;1.33;;
38629;SDS011;24384;51.988;4.644;2024-01-15T08:45:52;8.40;;;1.67;;
38629;SDS011;24384;51.988;4.644;2024-01-15T08:48:18;14.80;;;1.77;;
38629;SDS011;24384;51.988;4.644;2024-01-15T08:50:44;10.95;;;1.77;;
38629;SDS011;24384;51.988;4.644;2024-01-15T08:53:12;9.63;;;1.42;;
38629;SDS011;24384;51.988;4.644;2024-01-15T08:55:38;11.57;;;2.35;;
38629;SDS011;24384;51.988;4.644;2024-01-15T08:58:04;5.80;;;1.95;;
38629;SDS011;24384;51.988;4.644;2024-01-15T09:00:29;6.28;;;1.73;;
38629;SDS011;24384;51.988;4.644;2024-01-15T09:02:55;3.53;;;1.25;;
38629;SDS011;24384;51.988;4.644;2024-01-15T09:05:21;5.10;;;1.08;;
38629;SDS011;24384;51.988;4.644;2024-01-15T09:07:47;7.03;;;1.10;;
38629;SDS011;24384;51.988;4.644;2024-01-15T09:10:12;6.85;;;1.13;;
38629;SDS011;24384;51.988;4.644;2024-01-15T09:12:38;8.23;;;2.25;;
38629;SDS011;24384;51.988;4.644;2024-01-15T09:15:04;10.07;;;1.02;;
38629;SDS011;24384;51.988;4.644;2024-01-15T09:17:29;4.53;;;0.80;;
38629;SDS011;24384;51.988;4.644;2024-01-15T09:19:56;7.15;;;0.90;;
38629;SDS011;24384;51.988;4.644;2024-01-15T09:22:21;5.50;;;1.48;;
38629;SDS011;24384;51.988;4.644;2024-01-15T09:24:47;6.20;;;1.25;;
38629;SDS011;24384;51.988;4.644;2024-01-15T09:27:14;6.20;;;1.35;;
38629;SDS011;24384;51.988;4.644;2024-01-15T09:29:39;5.07;;;1.38;;
38629;SDS011;24384;51.988;4.644;2024-01-15T09:32:14;2.25;;;0.98;;
38629;SDS011;24384;51.988;4.644;2024-01-15T09:34:40;6.05;;;1.05;;
38629;SDS011;24384;51.988;4.644;2024-01-15T09:37:06;6.97;;;1.08;;
38629;SDS011;24384;51.988;4.644;2024-01-15T09:39:31;4.18;;;1.17;;
38629;SDS011;24384;51.988;4.644;2024-01-15T09:41:57;8.00;;;1.15;;
38629;SDS011;24384;51.988;4.644;2024-01-15T09:44:23;5.28;;;1.27;;
38629;SDS011;24384;51.988;4.644;2024-01-15T09:46:48;7.45;;;1.25;;
38629;SDS011;24384;51.988;4.644;2024-01-15T09:49:20;14.40;;;2.42;;
38629;SDS011;24384;51.988;4.644;2024-01-15T09:51:45;8.10;;;0.90;;
38629;SDS011;24384;51.988;4.644;2024-01-15T09:54:12;6.45;;;1.33;;
38629;SDS011;24384;51.988;4.644;2024-01-15T09:56:38;7.82;;;1.00;;
38629;SDS011;24384;51.988;4.644;2024-01-15T09:59:04;4.57;;;0.80;;
38629;SDS011;24384;51.988;4.644;2024-01-15T10:01:33;6.10;;;1.33;;
38629;SDS011;24384;51.988;4.644;2024-01-15T10:04:01;7.70;;;0.98;;
38629;SDS011;24384;51.988;4.644;2024-01-15T10:06:27;3.10;;;0.77;;
38629;SDS011;24384;51.988;4.644;2024-01-15T10:08:53;6.70;;;0.80;;
38629;SDS011;24384;51.988;4.644;2024-01-15T10:11:19;3.38;;;0.77;;
38629;SDS011;24384;51.988;4.644;2024-01-15T10:13:44;5.45;;;1.38;;
38629;SDS011;24384;51.988;4.644;2024-01-15T10:16:10;3.15;;;0.75;;
38629;SDS011;24384;51.988;4.644;2024-01-15T10:18:36;7.30;;;0.93;;
38629;SDS011;24384;51.988;4.644;2024-01-15T10:21:02;11.70;;;1.58;;
38629;SDS011;24384;51.988;4.644;2024-01-15T10:23:28;5.30;;;1.13;;
38629;SDS011;24384;51.988;4.644;2024-01-15T10:25:56;3.00;;;0.90;;
38629;SDS011;24384;51.988;4.644;2024-01-15T10:28:25;5.57;;;0.93;;
38629;SDS011;24384;51.988;4.644;2024-01-15T10:30:52;5.45;;;0.90;;
38629;SDS011;24384;51.988;4.644;2024-01-15T10:33:23;6.20;;;1.65;;
38629;SDS011;24384;51.988;4.644;2024-01-15T10:35:55;6.07;;;1.13;;
38629;SDS011;24384;51.988;4.644;2024-01-15T10:38:25;6.45;;;1.58;;
38629;SDS011;24384;51.988;4.644;2024-01-15T10:40:52;8.98;;;1.75;;
38629;SDS011;24384;51.988;4.644;2024-01-15T10:43:21;9.02;;;1.38;;
38629;SDS011;24384;51.988;4.644;2024-01-15T10:45:48;16.83;;;2.65;;
38629;SDS011;24384;51.988;4.644;2024-01-15T10:48:15;6.55;;;0.95;;
38629;SDS011;24384;51.988;4.644;2024-01-15T10:50:41;6.38;;;1.10;;
38629;SDS011;24384;51.988;4.644;2024-01-15T10:53:06;8.15;;;0.77;;
38629;SDS011;24384;51.988;4.644;2024-01-15T10:55:35;12.43;;;2.10;;
38629;SDS011;24384;51.988;4.644;2024-01-15T10:58:03;5.25;;;1.00;;
38629;SDS011;24384;51.988;4.644;2024-01-15T11:00:29;5.13;;;0.95;;
38629;SDS011;24384;51.988;4.644;2024-01-15T11:02:55;4.82;;;1.25;;
38629;SDS011;24384;51.988;4.644;2024-01-15T11:05:20;10.43;;;1.52;;
38629;SDS011;24384;51.988;4.644;2024-01-15T11:07:47;7.53;;;1.25;;
38629;SDS011;24384;51.988;4.644;2024-01-15T11:16:03;6.63;;;1.15;;
38629;SDS011;24384;51.988;4.644;2024-01-15T11:18:35;7.07;;;1.10;;
38629;SDS011;24384;51.988;4.644;2024-01-15T11:23:45;7.80;;;1.95;;
38629;SDS011;24384;51.988;4.644;2024-01-15T11:28:55;5.80;;;1.10;;
38629;SDS011;24384;51.988;4.644;2024-01-15T11:32:07;8.52;;;1.35;;
38629;SDS011;24384;51.988;4.644;2024-01-15T11:34:10;4.50;;;1.30;;
38629;SDS011;24384;51.988;4.644;2024-01-15T11:41:56;6.53;;;1.15;;
38629;SDS011;24384;51.988;4.644;2024-01-15T11:44:22;6.85;;;1.00;;
38629;SDS011;24384;51.988;4.644;2024-01-15T11:46:53;3.00;;;0.68;;
38629;SDS011;24384;51.988;4.644;2024-01-15T11:49:32;3.92;;;0.70;;
38629;SDS011;24384;51.988;4.644;2024-01-15T11:52:21;7.40;;;1.17;;
38629;SDS011;24384;51.988;4.644;2024-01-15T11:54:49;11.70;;;2.50;;
38629;SDS011;24384;51.988;4.644;2024-01-15T11:57:45;9.43;;;1.58;;
38629;SDS011;24384;51.988;4.644;2024-01-15T12:00:12;7.65;;;1.30;;
38629;SDS011;24384;51.988;4.644;2024-01-15T12:02:39;18.48;;;1.52;;
38629;SDS011;24384;51.988;4.644;2024-01-15T12:05:06;7.03;;;1.67;;
38629;SDS011;24384;51.988;4.644;2024-01-15T12:07:32;8.57;;;1.58;;
38629;SDS011;24384;51.988;4.644;2024-01-15T12:09:58;9.52;;;1.25;;
38629;SDS011;24384;51.988;4.644;2024-01-15T12:15:46;11.38;;;1.70;;
38629;SDS011;24384;51.988;4.644;2024-01-15T12:18:13;9.68;;;1.60;;
38629;SDS011;24384;51.988;4.644;2024-01-15T12:20:43;5.63;;;1.13;;
38629;SDS011;24384;51.988;4.644;2024-01-15T12:23:11;8.80;;;1.77;;
38629;SDS011;24384;51.988;4.644;2024-01-15T12:25:38;5.82;;;1.40;;
38629;SDS011;24384;51.988;4.644;2024-01-15T12:28:04;8.20;;;1.55;;
38629;SDS011;24384;51.988;4.644;2024-01-15T12:30:30;8.40;;;2.38;;
38629;SDS011;24384;51.988;4.644;2024-01-15T12:32:57;4.05;;;1.25;;
38629;SDS011;24384;51.988;4.644;2024-01-15T12:35:24;8.07;;;0.82;;
38629;SDS011;24384;51.988;4.644;2024-01-15T12:37:51;9.43;;;1.90;;
38629;SDS011;24384;51.988;4.644;2024-01-15T12:40:18;9.27;;;1.42;;
38629;SDS011;24384;51.988;4.644;2024-01-15T12:42:44;14.75;;;1.65;;
38629;SDS011;24384;51.988;4.644;2024-01-15T12:45:11;11.10;;;1.65;;
38629;SDS011;24384;51.988;4.644;2024-01-15T12:47:37;5.60;;;1.27;;
38629;SDS011;24384;51.988;4.644;2024-01-15T12:50:07;10.73;;;3.05;;
38629;SDS011;24384;51.988;4.644;2024-01-15T12:52:37;12.40;;;1.85;;
38629;SDS011;24384;51.988;4.644;2024-01-15T12:55:05;12.85;;;2.13;;
38629;SDS011;24384;51.988;4.644;2024-01-15T12:57:31;17.20;;;2.97;;
38629;SDS011;24384;51.988;4.644;2024-01-15T12:59:57;6.10;;;1.73;;
38629;SDS011;24384;51.988;4.644;2024-01-15T13:02:22;11.15;;;2.33;;
38629;SDS011;24384;51.988;4.644;2024-01-15T13:04:48;8.75;;;1.83;;
38629;SDS011;24384;51.988;4.644;2024-01-15T13:07:13;8.70;;;1.63;;
38629;SDS011;24384;51.988;4.644;2024-01-15T13:09:39;11.25;;;2.92;;
38629;SDS011;24384;51.988;4.644;2024-01-15T13:12:04;9.25;;;2.13;;
38629;SDS011;24384;51.988;4.644;2024-01-15T13:14:30;19.52;;;3.22;;
38629;SDS011;24384;51.988;4.644;2024-01-15T13:16:56;15.40;;;1.90;;
38629;SDS011;24384;51.988;4.644;2024-01-15T13:19:22;11.50;;;2.20;;
38629;SDS011;24384;51.988;4.644;2024-01-15T13:21:47;10.40;;;1.75;;
38629;SDS011;24384;51.988;4.644;2024-01-15T13:24:13;17.10;;;3.10;;
38629;SDS011;24384;51.988;4.644;2024-01-15T13:26:39;6.90;;;1.45;;
38629;SDS011;24384;51.988;4.644;2024-01-15T13:29:04;7.70;;;1.25;;
38629;SDS011;24384;51.988;4.644;2024-01-15T13:31:30;8.60;;;1.40;;
38629;SDS011;24384;51.988;4.644;2024-01-15T13:33:56;11.50;;;1.40;;
38629;SDS011;24384;51.988;4.644;2024-01-15T13:36:22;6.75;;;1.10;;
38629;SDS011;24384;51.988;4.644;2024-01-15T13:38:51;7.68;;;1.60;;
38629;SDS011;24384;51.988;4.644;2024-01-15T13:41:18;5.93;;;1.35;;
38629;SDS011;24384;51.988;4.644;2024-01-15T13:43:45;18.05;;;2.35;;
38629;SDS011;24384;51.988;4.644;2024-01-15T13:46:11;11.45;;;1.65;;
38629;SDS011;24384;51.988;4.644;2024-01-15T13:48:36;11.65;;;1.90;;
38629;SDS011;24384;51.988;4.644;2024-01-15T13:51:01;10.43;;;1.35;;
38629;SDS011;24384;51.988;4.644;2024-01-15T13:53:27;13.60;;;1.75;;
38629;SDS011;24384;51.988;4.644;2024-01-15T13:55:52;7.10;;;1.20;;
38629;SDS011;24384;51.988;4.644;2024-01-15T13:58:18;9.68;;;1.80;;
38629;SDS011;24384;51.988;4.644;2024-01-15T14:00:43;8.10;;;1.60;;
38629;SDS011;24384;51.988;4.644;2024-01-15T14:03:09;11.48;;;1.38;;
38629;SDS011;24384;51.988;4.644;2024-01-15T14:05:35;6.13;;;2.03;;
38629;SDS011;24384;51.988;4.644;2024-01-15T14:08:00;8.25;;;1.45;;
38629;SDS011;24384;51.988;4.644;2024-01-15T14:10:26;8.45;;;1.70;;
38629;SDS011;24384;51.988;4.644;2024-01-15T14:12:51;11.90;;;2.03;;
38629;SDS011;24384;51.988;4.644;2024-01-15T14:15:16;11.50;;;3.05;;
38629;SDS011;24384;51.988;4.644;2024-01-15T14:17:42;9.10;;;2.00;;
38629;SDS011;24384;51.988;4.644;2024-01-15T14:20:07;16.48;;;2.05;;
38629;SDS011;24384;51.988;4.644;2024-01-15T14:22:34;15.93;;;2.05;;
38629;SDS011;24384;51.988;4.644;2024-01-15T14:25:00;9.02;;;2.20;;
38629;SDS011;24384;51.988;4.644;2024-01-15T14:27:25;19.70;;;2.13;;
38629;SDS011;24384;51.988;4.644;2024-01-15T14:29:51;12.25;;;2.03;;
38629;SDS011;24384;51.988;4.644;2024-01-15T14:32:16;16.75;;;3.45;;
38629;SDS011;24384;51.988;4.644;2024-01-15T14:34:41;13.00;;;2.13;;
38629;SDS011;24384;51.988;4.644;2024-01-15T14:37:07;9.32;;;2.17;;
38629;SDS011;24384;51.988;4.644;2024-01-15T14:39:32;10.90;;;2.53;;
38629;SDS011;24384;51.988;4.644;2024-01-15T14:41:59;14.68;;;2.10;;
38629;SDS011;24384;51.988;4.644;2024-01-15T14:44:25;10.98;;;2.05;;
38629;SDS011;24384;51.988;4.644;2024-01-15T14:46:50;11.05;;;1.88;;
38629;SDS011;24384;51.988;4.644;2024-01-15T14:49:15;9.52;;;2.20;;
38629;SDS011;24384;51.988;4.644;2024-01-15T14:51:44;9.68;;;2.05;;
38629;SDS011;24384;51.988;4.644;2024-01-15T14:54:10;12.10;;;2.15;;
38629;SDS011;24384;51.988;4.644;2024-01-15T14:56:35;16.10;;;3.10;;